Terminal Aerodrome Forecast
Issued by NWS Lubbock, TX

Home | Current Version | Previous Version | Text Only | Print | Product List | Glossary On
Versions: 1 2 3 4 5 6 7 8 9 10 11 12 13 14 15 16
000
FTUS44 KLUB 311123
TAFLBB
TAF
KLBB 311123Z 3112/0112 10008KT 5SM -RA BR BKN005 BKN015 OVC020
     FM312100 19006KT P6SM SCT005 BKN015 OVC025
     FM010300 26008KT 5SM BR FEW005 SCT015 OVC025=

USA.gov is the U.S. government's official web portal to all federal, state and local government web resources and services.